sensor_id;sensor_type;location;lat;lon;timestamp;pressure;altitude;pressure_sealevel;temperature;humidity
17209;BME280;8720;48.488;9.202;2023-01-29T00:01:27;98040.13;;;5.96;61.30
17209;BME280;8720;48.488;9.202;2023-01-29T00:03:55;98027.97;;;5.92;61.54
17209;BME280;8720;48.488;9.202;2023-01-29T00:06:24;98020.19;;;5.92;61.28
17209;BME280;8720;48.488;9.202;2023-01-29T00:08:51;98021.06;;;5.94;61.54
17209;BME280;8720;48.488;9.202;2023-01-29T00:11:19;98024.53;;;5.96;61.35
17209;BME280;8720;48.488;9.202;2023-01-29T00:13:46;98037.53;;;5.97;61.40
17209;BME280;8720;48.488;9.202;2023-01-29T00:16:14;98030.63;;;5.99;61.34
17209;BME280;8720;48.488;9.202;2023-01-29T00:18:42;98031.47;;;6.00;61.29
17209;BME280;8720;48.488;9.202;2023-01-29T00:21:10;98033.25;;;6.01;61.32
17209;BME280;8720;48.488;9.202;2023-01-29T00:23:39;98024.56;;;6.02;61.54
17209;BME280;8720;48.488;9.202;2023-01-29T00:26:07;98014.16;;;5.97;61.11
17209;BME280;8720;48.488;9.202;2023-01-29T00:28:35;98028.94;;;6.01;61.19
17209;BME280;8720;48.488;9.202;2023-01-29T00:31:07;98023.69;;;5.98;61.14
17209;BME280;8720;48.488;9.202;2023-01-29T00:33:35;98032.34;;;5.96;61.07
17209;BME280;8720;48.488;9.202;2023-01-29T00:36:03;98034.88;;;5.93;61.29
17209;BME280;8720;48.488;9.202;2023-01-29T00:38:32;98037.47;;;5.90;61.22
17209;BME280;8720;48.488;9.202;2023-01-29T00:41:06;98028.75;;;5.86;61.25
17209;BME280;8720;48.488;9.202;2023-01-29T00:43:52;98006.06;;;5.70;61.17
17209;BME280;8720;48.488;9.202;2023-01-29T00:46:37;98028.63;;;5.77;61.37
17209;BME280;8720;48.488;9.202;2023-01-29T00:49:06;98023.41;;;5.74;61.47
17209;BME280;8720;48.488;9.202;2023-01-29T00:51:34;98032.09;;;5.76;61.56
17209;BME280;8720;48.488;9.202;2023-01-29T00:54:03;98023.44;;;5.77;61.52
17209;BME280;8720;48.488;9.202;2023-01-29T00:56:35;98019.09;;;5.76;61.36
17209;BME280;8720;48.488;9.202;2023-01-29T00:59:03;98011.34;;;5.78;61.34
17209;BME280;8720;48.488;9.202;2023-01-29T01:01:30;98011.28;;;5.75;61.48
17209;BME280;8720;48.488;9.202;2023-01-29T01:04:15;98018.28;;;5.80;61.46
17209;BME280;8720;48.488;9.202;2023-01-29T01:06:42;98019.22;;;5.84;61.47
17209;BME280;8720;48.488;9.202;2023-01-29T01:09:10;98017.50;;;5.86;61.41
17209;BME280;8720;48.488;9.202;2023-01-29T01:11:56;98011.44;;;5.85;61.31
17209;BME280;8720;48.488;9.202;2023-01-29T01:14:23;98022.72;;;5.87;61.21
17209;BME280;8720;48.488;9.202;2023-01-29T01:16:50;98017.53;;;5.90;61.25
17209;BME280;8720;48.488;9.202;2023-01-29T01:19:18;98014.03;;;5.85;61.44
17209;BME280;8720;48.488;9.202;2023-01-29T01:21:45;98021.00;;;5.91;61.21
17209;BME280;8720;48.488;9.202;2023-01-29T01:24:13;98020.13;;;5.90;61.14
17209;BME280;8720;48.488;9.202;2023-01-29T01:26:41;98021.00;;;5.91;61.25
17209;BME280;8720;48.488;9.202;2023-01-29T01:29:09;98021.03;;;5.92;61.12
17209;BME280;8720;48.488;9.202;2023-01-29T01:31:37;98025.31;;;5.90;61.13
17209;BME280;8720;48.488;9.202;2023-01-29T01:34:04;98017.59;;;5.98;61.29
17209;BME280;8720;48.488;9.202;2023-01-29T01:36:32;98013.28;;;5.98;60.94
17209;BME280;8720;48.488;9.202;2023-01-29T01:38:59;98011.56;;;5.97;61.05
17209;BME280;8720;48.488;9.202;2023-01-29T01:41:28;98009.81;;;5.98;61.00
17209;BME280;8720;48.488;9.202;2023-01-29T01:43:59;98002.91;;;5.98;61.06
17209;BME280;8720;48.488;9.202;2023-01-29T01:46:30;98000.31;;;5.98;61.04
17209;BME280;8720;48.488;9.202;2023-01-29T01:49:02;97999.44;;;5.98;61.11
17209;BME280;8720;48.488;9.202;2023-01-29T01:51:35;98000.31;;;5.97;60.94
17209;BME280;8720;48.488;9.202;2023-01-29T01:54:08;98002.00;;;5.95;60.98
17209;BME280;8720;48.488;9.202;2023-01-29T01:56:43;97984.66;;;5.92;61.12
17209;BME280;8720;48.488;9.202;2023-01-29T01:59:16;97982.94;;;5.91;60.92
17209;BME280;8720;48.488;9.202;2023-01-29T02:01:50;97984.66;;;5.91;60.98
17209;BME280;8720;48.488;9.202;2023-01-29T02:04:22;97991.56;;;5.89;61.09
17209;BME280;8720;48.488;9.202;2023-01-29T02:07:13;98000.19;;;5.86;61.18
17209;BME280;8720;48.488;9.202;2023-01-29T02:10:08;97998.47;;;5.87;61.46
17209;BME280;8720;48.488;9.202;2023-01-29T02:12:37;97995.03;;;5.88;61.28
17209;BME280;8720;48.488;9.202;2023-01-29T02:15:06;97995.03;;;5.91;61.45
17209;BME280;8720;48.488;9.202;2023-01-29T02:17:35;97997.72;;;5.97;61.08
17209;BME280;8720;48.488;9.202;2023-01-29T02:20:17;98012.41;;;5.98;60.96
17209;BME280;8720;48.488;9.202;2023-01-29T02:23:19;97994.22;;;5.95;61.06
17209;BME280;8720;48.488;9.202;2023-01-29T02:26:24;98003.72;;;5.93;61.34
17209;BME280;8720;48.488;9.202;2023-01-29T02:29:05;98000.28;;;5.94;61.12
17209;BME280;8720;48.488;9.202;2023-01-29T02:32:19;98009.81;;;5.98;61.25
17209;BME280;8720;48.488;9.202;2023-01-29T02:35:06;98010.75;;;6.03;61.01
17209;BME280;8720;48.488;9.202;2023-01-29T02:38:10;98002.09;;;6.02;61.15
17209;BME280;8720;48.488;9.202;2023-01-29T02:40:45;98004.69;;;6.04;60.95
17209;BME280;8720;48.488;9.202;2023-01-29T02:43:29;98001.25;;;6.06;61.00
17209;BME280;8720;48.488;9.202;2023-01-29T02:46:07;98006.47;;;6.08;60.90
17209;BME280;8720;48.488;9.202;2023-01-29T02:48:46;98013.41;;;6.07;60.70
17209;BME280;8720;48.488;9.202;2023-01-29T02:51:23;98020.31;;;6.05;60.70
17209;BME280;8720;48.488;9.202;2023-01-29T02:54:02;98021.97;;;6.02;60.78
17209;BME280;8720;48.488;9.202;2023-01-29T02:56:36;98014.16;;;5.97;60.74
17209;BME280;8720;48.488;9.202;2023-01-29T02:59:11;98017.59;;;5.95;60.98
17209;BME280;8720;48.488;9.202;2023-01-29T03:01:47;98029.69;;;5.94;60.93
17209;BME280;8720;48.488;9.202;2023-01-29T03:04:21;98019.31;;;5.93;61.16
17209;BME280;8720;48.488;9.202;2023-01-29T03:06:56;98018.41;;;5.89;61.03
17209;BME280;8720;48.488;9.202;2023-01-29T03:09:33;98014.09;;;5.90;61.17
17209;BME280;8720;48.488;9.202;2023-01-29T03:12:09;98026.22;;;5.92;61.06
17209;BME280;8720;48.488;9.202;2023-01-29T03:14:55;98021.91;;;5.94;61.29
17209;BME280;8720;48.488;9.202;2023-01-29T03:17:54;98013.28;;;5.95;61.13
17209;BME280;8720;48.488;9.202;2023-01-29T03:20:28;98015.91;;;6.00;60.85
17209;BME280;8720;48.488;9.202;2023-01-29T03:23:05;98013.34;;;6.01;60.90
17209;BME280;8720;48.488;9.202;2023-01-29T03:25:37;98001.19;;;6.00;60.75
17209;BME280;8720;48.488;9.202;2023-01-29T03:28:29;97994.22;;;5.95;60.83
17209;BME280;8720;48.488;9.202;2023-01-29T03:31:16;98002.97;;;6.01;60.80
17209;BME280;8720;48.488;9.202;2023-01-29T03:34:10;97994.28;;;6.01;60.85
17209;BME280;8720;48.488;9.202;2023-01-29T03:36:50;97983.84;;;5.95;60.72
17209;BME280;8720;48.488;9.202;2023-01-29T03:39:25;97984.72;;;5.97;60.80
17209;BME280;8720;48.488;9.202;2023-01-29T03:42:01;98002.13;;;6.07;60.62
17209;BME280;8720;48.488;9.202;2023-01-29T03:44:42;98001.25;;;6.08;60.56
17209;BME280;8720;48.488;9.202;2023-01-29T03:47:26;97996.91;;;6.04;60.45
17209;BME280;8720;48.488;9.202;2023-01-29T03:50:04;98009.94;;;6.10;60.52
17209;BME280;8720;48.488;9.202;2023-01-29T03:52:43;98005.63;;;6.10;60.61
17209;BME280;8720;48.488;9.202;2023-01-29T03:55:17;98003.91;;;6.11;60.52
17209;BME280;8720;48.488;9.202;2023-01-29T03:57:54;98013.44;;;6.12;60.45
17209;BME280;8720;48.488;9.202;2023-01-29T04:00:29;97998.72;;;6.11;60.43
17209;BME280;8720;48.488;9.202;2023-01-29T04:03:10;97994.28;;;6.04;60.61
17209;BME280;8720;48.488;9.202;2023-01-29T04:05:46;98009.06;;;6.08;60.49
17209;BME280;8720;48.488;9.202;2023-01-29T04:08:29;98006.47;;;6.08;60.59
17209;BME280;8720;48.488;9.202;2023-01-29T04:11:07;98009.06;;;6.08;60.44
17209;BME280;8720;48.488;9.202;2023-01-29T04:13:37;98005.63;;;6.07;60.40
17209;BME280;8720;48.488;9.202;2023-01-29T04:16:13;97990.00;;;6.06;60.43
17209;BME280;8720;48.488;9.202;2023-01-29T04:19:12;98004.78;;;6.13;60.41
17209;BME280;8720;48.488;9.202;2023-01-29T04:21:41;98004.81;;;6.16;60.43
17209;BME280;8720;48.488;9.202;2023-01-29T04:24:12;98004.81;;;6.17;60.31
17209;BME280;8720;48.488;9.202;2023-01-29T04:26:58;98006.56;;;6.20;60.36
17209;BME280;8720;48.488;9.202;2023-01-29T04:29:42;97996.97;;;6.11;59.89
17209;BME280;8720;48.488;9.202;2023-01-29T04:32:23;98015.25;;;6.19;60.10
17209;BME280;8720;48.488;9.202;2023-01-29T04:35:02;98004.81;;;6.16;59.97
17209;BME280;8720;48.488;9.202;2023-01-29T04:37:41;98010.00;;;6.13;59.97
17209;BME280;8720;48.488;9.202;2023-01-29T04:40:19;98008.22;;;6.07;60.13
17209;BME280;8720;48.488;9.202;2023-01-29T04:43:01;98003.84;;;6.03;60.14
17209;BME280;8720;48.488;9.202;2023-01-29T04:45:44;98003.78;;;5.99;60.16
17209;BME280;8720;48.488;9.202;2023-01-29T04:48:24;98002.88;;;5.94;60.34
17209;BME280;8720;48.488;9.202;2023-01-29T04:51:00;98015.00;;;5.98;60.30
17209;BME280;8720;48.488;9.202;2023-01-29T04:53:40;98008.97;;;5.99;60.17
17209;BME280;8720;48.488;9.202;2023-01-29T04:56:22;98010.75;;;6.01;59.91
17209;BME280;8720;48.488;9.202;2023-01-29T04:58:59;98012.47;;;6.04;59.94
17209;BME280;8720;48.488;9.202;2023-01-29T05:01:30;98002.97;;;6.06;60.01
17209;BME280;8720;48.488;9.202;2023-01-29T05:04:04;98006.44;;;6.06;59.95
17209;BME280;8720;48.488;9.202;2023-01-29T05:06:35;98006.47;;;6.09;59.89
17209;BME280;8720;48.488;9.202;2023-01-29T05:09:04;97991.69;;;6.02;59.62
17209;BME280;8720;48.488;9.202;2023-01-29T05:11:35;98003.03;;;6.12;59.78
17209;BME280;8720;48.488;9.202;2023-01-29T05:14:06;97997.00;;;6.14;59.70
17209;BME280;8720;48.488;9.202;2023-01-29T05:16:40;97991.00;;;6.18;59.54
17209;BME280;8720;48.488;9.202;2023-01-29T05:19:10;98002.28;;;6.22;59.55
17209;BME280;8720;48.488;9.202;2023-01-29T05:21:40;97999.69;;;6.25;59.33
17209;BME280;8720;48.488;9.202;2023-01-29T05:24:15;98004.88;;;6.23;59.15
17209;BME280;8720;48.488;9.202;2023-01-29T05:26:47;98010.97;;;6.27;59.16
17209;BME280;8720;48.488;9.202;2023-01-29T05:29:33;98009.22;;;6.26;59.37
17209;BME280;8720;48.488;9.202;2023-01-29T05:32:00;98004.88;;;6.23;59.35
17209;BME280;8720;48.488;9.202;2023-01-29T05:34:28;98003.97;;;6.20;59.26
17209;BME280;8720;48.488;9.202;2023-01-29T05:36:55;97999.66;;;6.19;59.31
17209;BME280;8720;48.488;9.202;2023-01-29T05:39:23;97998.78;;;6.21;59.29
17209;BME280;8720;48.488;9.202;2023-01-29T05:41:51;97997.06;;;6.22;59.06
17209;BME280;8720;48.488;9.202;2023-01-29T05:44:19;97999.69;;;6.23;59.20
17209;BME280;8720;48.488;9.202;2023-01-29T05:46:46;98003.16;;;6.27;59.08
17209;BME280;8720;48.488;9.202;2023-01-29T05:49:13;97999.72;;;6.28;59.24
17209;BME280;8720;48.488;9.202;2023-01-29T05:51:42;98011.00;;;6.31;58.98
17209;BME280;8720;48.488;9.202;2023-01-29T05:54:10;98004.03;;;6.27;58.89
17209;BME280;8720;48.488;9.202;2023-01-29T05:56:38;98012.78;;;6.34;58.88
17209;BME280;8720;48.488;9.202;2023-01-29T05:59:07;98011.06;;;6.36;58.82
17209;BME280;8720;48.488;9.202;2023-01-29T06:01:35;98008.47;;;6.36;58.77
17209;BME280;8720;48.488;9.202;2023-01-29T06:04:02;98013.66;;;6.37;58.66
17209;BME280;8720;48.488;9.202;2023-01-29T06:06:30;98008.47;;;6.37;58.61
17209;BME280;8720;48.488;9.202;2023-01-29T06:08:57;98010.19;;;6.37;58.68
17209;BME280;8720;48.488;9.202;2023-01-29T06:11:24;97997.19;;;6.34;58.57
17209;BME280;8720;48.488;9.202;2023-01-29T06:13:52;97998.03;;;6.31;58.63
17209;BME280;8720;48.488;9.202;2023-01-29T06:16:20;97972.03;;;6.28;58.63
17209;BME280;8720;48.488;9.202;2023-01-29T06:18:47;97972.88;;;6.26;58.67
17209;BME280;8720;48.488;9.202;2023-01-29T06:21:15;97966.78;;;6.25;58.59
17209;BME280;8720;48.488;9.202;2023-01-29T06:23:42;97969.38;;;6.25;58.55
17209;BME280;8720;48.488;9.202;2023-01-29T06:26:13;97967.59;;;6.18;58.33
17209;BME280;8720;48.488;9.202;2023-01-29T06:28:41;97983.25;;;6.29;58.53
17209;BME280;8720;48.488;9.202;2023-01-29T06:31:10;97982.41;;;6.28;58.34
17209;BME280;8720;48.488;9.202;2023-01-29T06:33:38;97982.41;;;6.28;58.39
17209;BME280;8720;48.488;9.202;2023-01-29T06:36:07;97979.81;;;6.30;58.46
17209;BME280;8720;48.488;9.202;2023-01-29T06:38:34;97987.63;;;6.30;58.19
17209;BME280;8720;48.488;9.202;2023-01-29T06:41:11;97990.22;;;6.30;58.21
17209;BME280;8720;48.488;9.202;2023-01-29T06:43:39;98000.56;;;6.27;58.30
17209;BME280;8720;48.488;9.202;2023-01-29T06:46:07;97998.84;;;6.29;58.32
17209;BME280;8720;48.488;9.202;2023-01-29T06:48:35;97997.13;;;6.29;58.14
17209;BME280;8720;48.488;9.202;2023-01-29T06:51:06;97997.13;;;6.28;58.21
17209;BME280;8720;48.488;9.202;2023-01-29T06:53:37;97996.25;;;6.29;58.22
17209;BME280;8720;48.488;9.202;2023-01-29T06:56:06;97995.38;;;6.27;58.27
17209;BME280;8720;48.488;9.202;2023-01-29T06:58:36;97997.97;;;6.27;58.29
17209;BME280;8720;48.488;9.202;2023-01-29T07:01:05;97992.78;;;6.27;58.24
17209;BME280;8720;48.488;9.202;2023-01-29T07:03:33;98008.34;;;6.27;58.38
17209;BME280;8720;48.488;9.202;2023-01-29T07:06:00;98012.97;;;6.60;54.31
17209;BME280;8720;48.488;9.202;2023-01-29T07:08:29;98025.06;;;6.56;55.92
17209;BME280;8720;48.488;9.202;2023-01-29T07:10:58;98015.44;;;6.43;56.56
17209;BME280;8720;48.488;9.202;2023-01-29T07:13:26;98006.69;;;6.35;57.14
17209;BME280;8720;48.488;9.202;2023-01-29T07:15:53;98011.03;;;6.34;57.47
17209;BME280;8720;48.488;9.202;2023-01-29T07:18:23;98017.94;;;6.32;57.50
17209;BME280;8720;48.488;9.202;2023-01-29T07:20:51;98017.94;;;6.32;57.66
17209;BME280;8720;48.488;9.202;2023-01-29T07:23:18;98025.75;;;6.34;57.65
17209;BME280;8720;48.488;9.202;2023-01-29T07:25:47;98030.97;;;6.34;57.62
17209;BME280;8720;48.488;9.202;2023-01-29T07:28:15;98034.41;;;6.34;57.70
17209;BME280;8720;48.488;9.202;2023-01-29T07:30:43;98030.09;;;6.35;57.74
17209;BME280;8720;48.488;9.202;2023-01-29T07:33:11;98034.47;;;6.39;57.64
17209;BME280;8720;48.488;9.202;2023-01-29T07:35:40;98035.34;;;6.41;57.76
17209;BME280;8720;48.488;9.202;2023-01-29T07:38:09;98031.91;;;6.43;57.71
17209;BME280;8720;48.488;9.202;2023-01-29T07:40:37;98023.22;;;6.40;57.72
17209;BME280;8720;48.488;9.202;2023-01-29T07:43:06;98028.47;;;6.48;57.63
17209;BME280;8720;48.488;9.202;2023-01-29T07:45:35;98031.94;;;6.48;57.71
17209;BME280;8720;48.488;9.202;2023-01-29T07:48:05;98031.09;;;6.48;57.70
17209;BME280;8720;48.488;9.202;2023-01-29T07:50:34;98033.69;;;6.49;57.69
17209;BME280;8720;48.488;9.202;2023-01-29T07:53:02;98034.56;;;6.50;57.67
17209;BME280;8720;48.488;9.202;2023-01-29T07:55:30;98044.97;;;6.51;57.63
17209;BME280;8720;48.488;9.202;2023-01-29T07:57:59;98047.56;;;6.51;57.62
17209;BME280;8720;48.488;9.202;2023-01-29T08:00:29;98052.75;;;6.51;57.57
17209;BME280;8720;48.488;9.202;2023-01-29T08:03:02;98055.34;;;6.51;57.50
17209;BME280;8720;48.488;9.202;2023-01-29T08:05:30;98057.97;;;6.51;57.76
17209;BME280;8720;48.488;9.202;2023-01-29T08:07:57;98057.91;;;6.48;57.73
17209;BME280;8720;48.488;9.202;2023-01-29T08:10:25;98050.09;;;6.43;57.78
17209;BME280;8720;48.488;9.202;2023-01-29T08:12:56;98040.53;;;6.39;57.91
17209;BME280;8720;48.488;9.202;2023-01-29T08:15:24;98066.66;;;6.53;57.84
17209;BME280;8720;48.488;9.202;2023-01-29T08:17:53;98073.56;;;6.56;57.83
17209;BME280;8720;48.488;9.202;2023-01-29T08:20:21;98064.94;;;6.58;57.85
17209;BME280;8720;48.488;9.202;2023-01-29T08:22:49;98071.03;;;6.60;57.59
17209;BME280;8720;48.488;9.202;2023-01-29T08:25:16;98070.16;;;6.60;57.68
17209;BME280;8720;48.488;9.202;2023-01-29T08:27:43;98067.53;;;6.60;57.68
17209;BME280;8720;48.488;9.202;2023-01-29T08:30:12;98063.22;;;6.60;57.67
17209;BME280;8720;48.488;9.202;2023-01-29T08:32:39;98062.38;;;6.63;57.53
17209;BME280;8720;48.488;9.202;2023-01-29T08:35:08;98054.59;;;6.64;57.53
17209;BME280;8720;48.488;9.202;2023-01-29T08:37:36;98054.66;;;6.69;57.69
17209;BME280;8720;48.488;9.202;2023-01-29T08:40:04;98049.44;;;6.72;57.64
17209;BME280;8720;48.488;9.202;2023-01-29T08:42:35;98055.53;;;6.72;57.53
17209;BME280;8720;48.488;9.202;2023-01-29T08:45:03;98055.56;;;6.77;57.58
17209;BME280;8720;48.488;9.202;2023-01-29T08:47:31;98061.63;;;6.77;57.51
17209;BME280;8720;48.488;9.202;2023-01-29T08:49:58;98069.44;;;6.79;57.50
17209;BME280;8720;48.488;9.202;2023-01-29T08:52:29;98068.59;;;6.81;57.49
17209;BME280;8720;48.488;9.202;2023-01-29T08:54:57;98062.56;;;6.87;57.70
17209;BME280;8720;48.488;9.202;2023-01-29T08:57:24;98066.09;;;6.90;57.76
17209;BME280;8720;48.488;9.202;2023-01-29T08:59:51;98063.47;;;6.93;57.79
17209;BME280;8720;48.488;9.202;2023-01-29T09:02:19;98069.56;;;6.95;57.75
17209;BME280;8720;48.488;9.202;2023-01-29T09:04:46;98068.69;;;6.96;57.71
17209;BME280;8720;48.488;9.202;2023-01-29T09:07:13;98067.84;;;6.99;57.73
17209;BME280;8720;48.488;9.202;2023-01-29T09:09:42;98073.94;;;7.02;57.73
17209;BME280;8720;48.488;9.202;2023-01-29T09:12:09;98078.31;;;7.03;57.69
17209;BME280;8720;48.488;9.202;2023-01-29T09:14:36;98082.63;;;7.04;57.60
17209;BME280;8720;48.488;9.202;2023-01-29T09:17:04;98085.28;;;7.07;57.40
17209;BME280;8720;48.488;9.202;2023-01-29T09:19:31;98084.41;;;7.10;57.46
17209;BME280;8720;48.488;9.202;2023-01-29T09:21:58;98089.63;;;7.11;57.29
17209;BME280;8720;48.488;9.202;2023-01-29T09:24:25;98090.50;;;7.13;57.43
17209;BME280;8720;48.488;9.202;2023-01-29T09:26:54;98092.25;;;7.16;57.30
17209;BME280;8720;48.488;9.202;2023-01-29T09:29:21;98093.13;;;7.18;57.27
17209;BME280;8720;48.488;9.202;2023-01-29T09:31:49;98100.94;;;7.19;57.50
17209;BME280;8720;48.488;9.202;2023-01-29T09:34:16;98104.41;;;7.20;57.38
17209;BME280;8720;48.488;9.202;2023-01-29T09:36:43;98099.22;;;7.20;57.65
17209;BME280;8720;48.488;9.202;2023-01-29T09:39:11;98101.81;;;7.21;57.20
17209;BME280;8720;48.488;9.202;2023-01-29T09:41:50;98106.19;;;7.24;57.09
17209;BME280;8720;48.488;9.202;2023-01-29T09:47:17;98092.34;;;7.28;57.47
17209;BME280;8720;48.488;9.202;2023-01-29T09:49:51;98094.97;;;7.32;57.33
17209;BME280;8720;48.488;9.202;2023-01-29T09:52:25;98095.84;;;7.34;57.12
17209;BME280;8720;48.488;9.202;2023-01-29T09:55:02;98094.13;;;7.38;57.17
17209;BME280;8720;48.488;9.202;2023-01-29T09:57:39;98091.53;;;7.41;57.12
17209;BME280;8720;48.488;9.202;2023-01-29T10:00:19;98094.13;;;7.43;57.31
17209;BME280;8720;48.488;9.202;2023-01-29T10:03:21;98095.91;;;7.47;57.48
17209;BME280;8720;48.488;9.202;2023-01-29T10:06:17;98089.00;;;7.52;57.80
17209;BME280;8720;48.488;9.202;2023-01-29T10:09:28;98077.75;;;7.59;57.83
17209;BME280;8720;48.488;9.202;2023-01-29T10:12:16;98074.28;;;7.63;57.55
17209;BME280;8720;48.488;9.202;2023-01-29T10:14:57;98065.63;;;7.70;57.43
17209;BME280;8720;48.488;9.202;2023-01-29T10:17:50;98065.66;;;7.76;57.72
17209;BME280;8720;48.488;9.202;2023-01-29T10:20:45;98059.59;;;7.80;57.43
17209;BME280;8720;48.488;9.202;2023-01-29T10:23:23;98057.88;;;7.83;57.11
17209;BME280;8720;48.488;9.202;2023-01-29T10:25:54;98046.59;;;7.87;57.22
17209;BME280;8720;48.488;9.202;2023-01-29T10:28:29;98033.59;;;7.93;56.96
17209;BME280;8720;48.488;9.202;2023-01-29T10:31:03;98024.03;;;7.97;56.95
17209;BME280;8720;48.488;9.202;2023-01-29T10:33:39;98023.19;;;8.04;57.01
17209;BME280;8720;48.488;9.202;2023-01-29T10:36:14;98015.38;;;8.10;56.72
17209;BME280;8720;48.488;9.202;2023-01-29T10:38:45;98015.38;;;8.16;56.97
17209;BME280;8720;48.488;9.202;2023-01-29T10:41:39;98017.13;;;8.21;57.10
17209;BME280;8720;48.488;9.202;2023-01-29T10:44:25;98008.50;;;8.27;57.27
17209;BME280;8720;48.488;9.202;2023-01-29T10:47:26;98011.97;;;8.37;57.53
17209;BME280;8720;48.488;9.202;2023-01-29T10:50:30;98025.88;;;8.46;57.57
17209;BME280;8720;48.488;9.202;2023-01-29T10:53:26;98034.59;;;8.56;57.37
17209;BME280;8720;48.488;9.202;2023-01-29T10:56:11;98025.88;;;8.64;57.33
17209;BME280;8720;48.488;9.202;2023-01-29T10:58:48;98033.72;;;8.73;57.21
17209;BME280;8720;48.488;9.202;2023-01-29T11:01:17;98036.31;;;8.82;57.24
17209;BME280;8720;48.488;9.202;2023-01-29T11:03:55;98027.56;;;8.91;57.18
17209;BME280;8720;48.488;9.202;2023-01-29T11:06:30;98024.13;;;8.98;57.04
17209;BME280;8720;48.488;9.202;2023-01-29T11:09:05;98023.22;;;9.03;57.07
17209;BME280;8720;48.488;9.202;2023-01-29T11:11:42;98012.78;;;9.09;56.95
17209;BME280;8720;48.488;9.202;2023-01-29T11:14:21;98003.19;;;9.13;56.85
17209;BME280;8720;48.488;9.202;2023-01-29T11:16:50;98007.50;;;9.20;56.85
17209;BME280;8720;48.488;9.202;2023-01-29T11:19:35;98012.72;;;9.26;56.92
17209;BME280;8720;48.488;9.202;2023-01-29T11:22:12;97999.66;;;9.26;56.71
17209;BME280;8720;48.488;9.202;2023-01-29T11:24:39;98004.84;;;9.38;56.86
17209;BME280;8720;48.488;9.202;2023-01-29T11:27:16;98001.34;;;9.44;56.36
17209;BME280;8720;48.488;9.202;2023-01-29T11:29:52;98003.09;;;9.43;56.12
17209;BME280;8720;48.488;9.202;2023-01-29T11:32:32;98003.09;;;9.43;56.17
17209;BME280;8720;48.488;9.202;2023-01-29T11:35:02;97998.75;;;9.42;56.07
17209;BME280;8720;48.488;9.202;2023-01-29T11:37:36;97998.75;;;9.41;55.71
17209;BME280;8720;48.488;9.202;2023-01-29T11:40:39;97998.75;;;9.41;56.97
17209;BME280;8720;48.488;9.202;2023-01-29T11:43:19;98003.97;;;9.42;56.32
17209;BME280;8720;48.488;9.202;2023-01-29T11:45:49;98010.06;;;9.43;56.13
17209;BME280;8720;48.488;9.202;2023-01-29T11:48:19;98000.47;;;9.42;55.90
17209;BME280;8720;48.488;9.202;2023-01-29T11:50:53;98000.50;;;9.45;55.80
17209;BME280;8720;48.488;9.202;2023-01-29T11:53:35;97992.66;;;9.45;55.83
17209;BME280;8720;48.488;9.202;2023-01-29T11:56:15;97981.38;;;9.37;55.65
17209;BME280;8720;48.488;9.202;2023-01-29T11:58:45;97995.25;;;9.46;55.87
17209;BME280;8720;48.488;9.202;2023-01-29T12:01:26;97999.56;;;9.49;55.71
17209;BME280;8720;48.488;9.202;2023-01-29T12:03:56;97987.38;;;9.51;55.98
17209;BME280;8720;48.488;9.202;2023-01-29T12:06:32;97979.56;;;9.52;55.78
17209;BME280;8720;48.488;9.202;2023-01-29T12:09:08;97976.06;;;9.52;55.83
17209;BME280;8720;48.488;9.202;2023-01-29T12:11:36;97965.59;;;9.53;55.70
17209;BME280;8720;48.488;9.202;2023-01-29T12:14:22;97957.78;;;9.52;55.90
17209;BME280;8720;48.488;9.202;2023-01-29T12:16:56;97964.75;;;9.51;55.75
17209;BME280;8720;48.488;9.202;2023-01-29T12:19:32;97964.75;;;9.54;55.79
17209;BME280;8720;48.488;9.202;2023-01-29T12:22:08;97968.22;;;9.58;55.94
17209;BME280;8720;48.488;9.202;2023-01-29T12:24:46;97964.72;;;9.59;55.81
17209;BME280;8720;48.488;9.202;2023-01-29T12:27:23;97956.00;;;9.57;55.58
17209;BME280;8720;48.488;9.202;2023-01-29T12:29:58;97959.50;;;9.53;55.63
17209;BME280;8720;48.488;9.202;2023-01-29T12:32:38;97952.56;;;9.49;55.73
17209;BME280;8720;48.488;9.202;2023-01-29T12:35:18;97944.72;;;9.49;55.79
17209;BME280;8720;48.488;9.202;2023-01-29T12:37:56;97933.41;;;9.50;55.82
17209;BME280;8720;48.488;9.202;2023-01-29T12:40:33;97924.69;;;9.51;56.02
17209;BME280;8720;48.488;9.202;2023-01-29T12:43:14;97914.25;;;9.52;55.99
17209;BME280;8720;48.488;9.202;2023-01-29T12:45:46;97901.19;;;9.54;55.83
17209;BME280;8720;48.488;9.202;2023-01-29T12:48:22;97891.59;;;9.53;55.80
17209;BME280;8720;48.488;9.202;2023-01-29T12:50:52;97892.50;;;9.50;55.59
17209;BME280;8720;48.488;9.202;2023-01-29T12:53:27;97888.16;;;9.48;55.46
17209;BME280;8720;48.488;9.202;2023-01-29T12:56:02;97876.88;;;9.40;55.26
17209;BME280;8720;48.488;9.202;2023-01-29T12:58:38;97864.72;;;9.39;55.47
17209;BME280;8720;48.488;9.202;2023-01-29T13:01:15;97864.72;;;9.36;55.49
17209;BME280;8720;48.488;9.202;2023-01-29T13:03:50;97852.56;;;9.32;55.87
17209;BME280;8720;48.488;9.202;2023-01-29T13:06:25;97851.66;;;9.36;55.90
17209;BME280;8720;48.488;9.202;2023-01-29T13:08:59;97842.09;;;9.36;55.93
17209;BME280;8720;48.488;9.202;2023-01-29T13:11:38;97837.75;;;9.32;55.81
17209;BME280;8720;48.488;9.202;2023-01-29T13:14:15;97832.59;;;9.25;55.70
17209;BME280;8720;48.488;9.202;2023-01-29T13:16:49;97823.94;;;9.16;55.83
17209;BME280;8720;48.488;9.202;2023-01-29T13:19:26;97827.44;;;9.11;56.05
17209;BME280;8720;48.488;9.202;2023-01-29T13:21:58;97830.09;;;9.08;55.84
17209;BME280;8720;48.488;9.202;2023-01-29T13:24:40;97823.13;;;9.07;56.00
17209;BME280;8720;48.488;9.202;2023-01-29T13:27:21;97824.00;;;9.06;56.19
17209;BME280;8720;48.488;9.202;2023-01-29T13:29:50;97817.03;;;9.09;56.33
17209;BME280;8720;48.488;9.202;2023-01-29T13:32:24;97818.75;;;9.10;56.02
17209;BME280;8720;48.488;9.202;2023-01-29T13:34:55;97816.22;;;9.00;56.05
17209;BME280;8720;48.488;9.202;2023-01-29T13:37:30;97829.19;;;9.10;55.91
17209;BME280;8720;48.488;9.202;2023-01-29T13:40:02;97820.50;;;9.10;56.03
17209;BME280;8720;48.488;9.202;2023-01-29T13:42:44;97830.06;;;9.09;56.13
17209;BME280;8720;48.488;9.202;2023-01-29T13:45:20;97821.38;;;9.09;56.25
17209;BME280;8720;48.488;9.202;2023-01-29T13:47:50;97824.81;;;9.12;56.50
17209;BME280;8720;48.488;9.202;2023-01-29T13:50:23;97820.44;;;9.16;56.09
17209;BME280;8720;48.488;9.202;2023-01-29T13:52:56;97816.94;;;9.20;55.95
17209;BME280;8720;48.488;9.202;2023-01-29T13:55:29;97826.50;;;9.23;56.11
17209;BME280;8720;48.488;9.202;2023-01-29T13:58:00;97826.50;;;9.27;55.94
17209;BME280;8720;48.488;9.202;2023-01-29T14:00:55;97829.97;;;9.29;56.54
17209;BME280;8720;48.488;9.202;2023-01-29T14:03:51;97830.81;;;9.30;56.72